createdAt,value
2018-11-11T00:00:44.671Z,93.46
2018-11-11T00:01:47.515Z,94.26
2018-11-11T00:02:51.571Z,93.58
2018-11-11T00:03:54.455Z,93.78
2018-11-11T00:04:57.322Z,93.80
2018-11-11T00:06:00.062Z,93.81
2018-11-11T00:07:02.803Z,93.46
2018-11-11T00:08:05.577Z,93.57
2018-11-11T00:09:09.054Z,93.59
2018-11-11T00:10:11.894Z,93.83
2018-11-11T00:11:14.657Z,93.64
2018-11-11T00:12:17.383Z,93.45
2018-11-11T00:13:20.136Z,94.06
2018-11-11T00:14:22.898Z,93.32
2018-11-11T00:15:25.930Z,93.99
2018-11-11T00:16:28.721Z,93.56
2018-11-11T00:17:33.342Z,93.88
2018-11-11T00:18:36.069Z,93.83
2018-11-11T00:19:40.530Z,94.08
2018-11-11T00:20:43.342Z,93.97
2018-11-11T00:21:46.423Z,93.24
2018-11-11T00:22:49.182Z,93.42
2018-11-11T00:23:53.517Z,93.32
2018-11-11T00:24:56.740Z,93.35
2018-11-11T00:25:59.493Z,92.78
2018-11-11T00:27:02.260Z,93.38
2018-11-11T00:28:05.334Z,92.85
2018-11-11T00:29:08.243Z,92.98
2018-11-11T00:30:11.829Z,92.89
2018-11-11T00:31:14.588Z,92.71
2018-11-11T00:32:18.072Z,93.17
2018-11-11T00:33:20.876Z,93.20
2018-11-11T00:34:23.980Z,92.84
2018-11-11T00:35:27.487Z,92.75
2018-11-11T00:36:32.675Z,91.53
2018-11-11T00:37:35.414Z,91.54
2018-11-11T00:38:38.322Z,91.05
2018-11-11T00:39:41.843Z,91.54
2018-11-11T00:40:44.921Z,91.56
2018-11-11T00:41:47.666Z,91.09
2018-11-11T00:42:50.423Z,90.91
2018-11-11T00:43:53.219Z,91.23
2018-11-11T00:44:56.096Z,91.02
2018-11-11T00:46:01.566Z,90.95
2018-11-11T00:47:04.871Z,91.57
2018-11-11T00:48:08.474Z,91.42
2018-11-11T00:49:11.216Z,91.18
2018-11-11T00:50:14.125Z,91.09
2018-11-11T00:51:16.871Z,90.87
2018-11-11T00:52:19.603Z,91.20
2018-11-11T00:53:23.624Z,91.24
2018-11-11T00:54:27.327Z,90.78
2018-11-11T00:55:35.973Z,91.10
2018-11-11T00:56:38.697Z,90.87
2018-11-11T00:57:42.114Z,91.33
2018-11-11T00:58:45.797Z,91.31
2018-11-11T00:59:48.863Z,91.15
2018-11-11T01:00:51.598Z,91.07
2018-11-11T01:01:54.374Z,91.06
2018-11-11T01:02:57.103Z,91.09
2018-11-11T01:04:01.556Z,89.97
2018-11-11T01:05:04.359Z,89.83
2018-11-11T01:06:08.179Z,90.16
2018-11-11T01:07:11.684Z,90.77
2018-11-11T01:08:14.402Z,90.05
2018-11-11T01:09:17.291Z,89.58
2018-11-11T01:10:20.842Z,89.86
2018-11-11T01:11:24.817Z,90.05
2018-11-11T01:12:27.870Z,89.57
2018-11-11T01:13:30.621Z,89.85
2018-11-11T01:14:33.626Z,89.33
2018-11-11T01:15:37.052Z,89.41
2018-11-11T01:16:40.082Z,89.10
2018-11-11T01:17:45.730Z,89.30
2018-11-11T01:18:49.312Z,89.18
2018-11-11T01:19:52.207Z,89.54
2018-11-11T01:20:55.141Z,88.73
2018-11-11T01:21:58.786Z,88.41
2018-11-11T01:23:01.538Z,88.57
2018-11-11T01:24:04.277Z,88.98
2018-11-11T01:25:07.325Z,88.67
2018-11-11T01:26:10.050Z,88.40
2018-11-11T01:27:13.459Z,89.29
2018-11-11T01:28:16.285Z,89.07
2018-11-11T01:29:19.515Z,88.03
2018-11-11T01:30:22.254Z,88.21
2018-11-11T01:31:25.335Z,88.60
2018-11-11T01:32:28.646Z,87.84
2018-11-11T01:33:31.430Z,88.33
2018-11-11T01:34:34.200Z,87.48
2018-11-11T01:35:37.033Z,87.37
2018-11-11T01:36:40.013Z,87.20
2018-11-11T01:37:43.801Z,87.59
2018-11-11T01:38:46.756Z,86.55
2018-11-11T01:39:50.203Z,87.52
2018-11-11T01:40:53.187Z,87.35
2018-11-11T01:41:55.912Z,87.88
2018-11-11T01:42:58.626Z,87.48
2018-11-11T01:44:02.150Z,87.65
2018-11-11T01:45:05.133Z,86.55
2018-11-11T01:46:07.937Z,86.41
2018-11-11T01:47:10.809Z,86.45
2018-11-11T01:48:13.549Z,86.64
2018-11-11T01:49:16.277Z,85.76
2018-11-11T01:50:20.391Z,86.23
2018-11-11T01:51:23.273Z,86.45
2018-11-11T01:52:26.001Z,85.92
2018-11-11T01:53:29.396Z,86.56
2018-11-11T01:54:32.932Z,86.49
2018-11-11T01:55:36.074Z,87.03
2018-11-11T01:56:41.495Z,87.17
2018-11-11T01:57:44.273Z,85.23
2018-11-11T01:58:47.048Z,86.01
2018-11-11T01:59:50.976Z,85.41
2018-11-11T02:00:54.132Z,85.36
2018-11-11T02:01:57.803Z,86.27
2018-11-11T02:03:00.836Z,85.84
2018-11-11T02:04:04.590Z,85.51
2018-11-11T02:05:10.908Z,85.79
2018-11-11T02:06:14.387Z,85.23
2018-11-11T02:07:17.129Z,85.50
2018-11-11T02:08:21.176Z,85.57
2018-11-11T02:09:24.182Z,85.87
2018-11-11T02:10:27.707Z,86.11
2018-11-11T02:11:30.972Z,85.52
2018-11-11T02:12:33.794Z,85.53
2018-11-11T02:13:36.613Z,85.68
2018-11-11T02:14:40.027Z,85.18
2018-11-11T02:15:43.072Z,85.33
2018-11-11T02:16:45.877Z,84.99
2018-11-11T02:17:48.679Z,85.54
2018-11-11T02:18:52.591Z,85.55
2018-11-11T02:19:55.320Z,85.47
2018-11-11T02:20:58.572Z,85.18
2018-11-11T02:22:01.711Z,84.95
2018-11-11T02:23:04.455Z,85.30
2018-11-11T02:24:07.204Z,85.32
2018-11-11T02:25:10.671Z,85.74
2018-11-11T02:26:13.536Z,85.49
2018-11-11T02:27:16.439Z,85.24
2018-11-11T02:28:19.544Z,85.36
2018-11-11T02:29:22.311Z,85.77
2018-11-11T02:30:25.206Z,84.99
2018-11-11T02:31:28.089Z,85.80
2018-11-11T02:32:30.998Z,85.42
2018-11-11T02:33:33.997Z,85.76
2018-11-11T02:34:37.150Z,85.64
2018-11-11T02:35:40.398Z,85.07
2018-11-11T02:36:43.232Z,85.95
2018-11-11T02:37:46.249Z,85.15
2018-11-11T02:38:48.996Z,85.54
2018-11-11T02:39:51.877Z,85.71
2018-11-11T02:40:54.967Z,85.67
2018-11-11T02:41:57.733Z,85.36
2018-11-11T02:43:00.791Z,86.34
2018-11-11T02:44:03.713Z,85.35
2018-11-11T02:45:06.599Z,86.00
2018-11-11T02:46:11.253Z,85.65
2018-11-11T02:47:17.094Z,85.73
2018-11-11T02:48:19.986Z,86.06
2018-11-11T02:49:23.787Z,85.59
2018-11-11T02:50:29.564Z,85.39
2018-11-11T02:51:32.344Z,85.30
2018-11-11T02:52:35.083Z,85.70
2018-11-11T02:53:38.204Z,85.82
2018-11-11T02:54:41.021Z,86.27
2018-11-11T02:55:43.810Z,86.27
2018-11-11T02:56:46.591Z,85.82
2018-11-11T02:57:49.548Z,86.41
2018-11-11T02:58:52.335Z,86.25
2018-11-11T02:59:55.458Z,85.88
2018-11-11T03:00:58.206Z,85.71
2018-11-11T03:02:01.427Z,85.69
2018-11-11T03:03:04.464Z,85.57
2018-11-11T03:04:07.421Z,85.67
2018-11-11T03:05:11.168Z,85.32
2018-11-11T03:06:14.316Z,85.83
2018-11-11T03:07:17.055Z,86.48
2018-11-11T03:08:20.191Z,86.87
2018-11-11T03:09:23.761Z,85.97
2018-11-11T03:10:26.493Z,86.18
2018-11-11T03:11:29.468Z,86.06
2018-11-11T03:12:32.987Z,86.48
2018-11-11T03:13:35.975Z,86.60
2018-11-11T03:14:38.760Z,86.50
2018-11-11T03:15:41.583Z,86.30
2018-11-11T03:16:44.332Z,86.42
2018-11-11T03:17:48.338Z,86.41
2018-11-11T03:18:51.438Z,86.12
2018-11-11T03:19:54.190Z,86.62
2018-11-11T03:20:56.912Z,86.83
2018-11-11T03:21:59.717Z,86.05
2018-11-11T03:23:02.431Z,86.34
2018-11-11T03:24:05.274Z,87.00
2018-11-11T03:25:08.401Z,86.17
2018-11-11T03:26:11.211Z,86.81
2018-11-11T03:27:13.935Z,86.34
2018-11-11T03:28:16.921Z,86.31
2018-11-11T03:29:20.572Z,86.81
2018-11-11T03:30:23.331Z,86.25
2018-11-11T03:31:26.384Z,86.46
2018-11-11T03:32:29.129Z,86.44
2018-11-11T03:33:31.887Z,86.28
2018-11-11T03:34:35.604Z,86.94
2018-11-11T03:35:39.260Z,86.99
2018-11-11T03:36:43.373Z,86.54
2018-11-11T03:37:47.953Z,86.66
2018-11-11T03:38:50.689Z,86.97
2018-11-11T03:39:53.439Z,86.77
2018-11-11T03:40:57.083Z,87.16
2018-11-11T03:41:59.812Z,86.92
2018-11-11T03:43:02.573Z,86.65
2018-11-11T03:44:05.594Z,86.93
2018-11-11T03:45:08.389Z,87.09
2018-11-11T03:46:11.779Z,86.97
2018-11-11T03:47:15.227Z,86.99
2018-11-11T03:48:18.009Z,87.31
2018-11-11T03:49:20.768Z,87.01
2018-11-11T03:50:23.796Z,86.67
2018-11-11T03:51:26.626Z,86.43
2018-11-11T03:52:29.410Z,86.38
2018-11-11T03:53:32.261Z,86.66
2018-11-11T03:54:34.990Z,85.76
2018-11-11T03:55:38.408Z,85.34
2018-11-11T03:56:41.430Z,86.29
2018-11-11T03:57:44.196Z,86.25
2018-11-11T03:58:48.492Z,85.93
2018-11-11T03:59:51.245Z,85.97
2018-11-11T04:00:53.983Z,85.79
2018-11-11T04:01:56.760Z,85.86
2018-11-11T04:02:59.817Z,85.93
2018-11-11T04:04:02.568Z,85.61
2018-11-11T04:05:09.649Z,86.04
2018-11-11T04:06:12.377Z,85.95
2018-11-11T04:07:15.129Z,85.97
2018-11-11T04:08:18.056Z,85.69
2018-11-11T04:09:21.118Z,85.49
2018-11-11T04:10:23.917Z,85.71
2018-11-11T04:11:26.696Z,85.79
2018-11-11T04:12:29.432Z,85.47
2018-11-11T04:13:32.206Z,85.87
2018-11-11T04:14:34.937Z,85.66
2018-11-11T04:15:39.432Z,85.70
2018-11-11T04:16:42.183Z,85.48
2018-11-11T04:17:44.994Z,86.11
2018-11-11T04:18:47.751Z,85.53
2018-11-11T04:19:50.742Z,85.97
2018-11-11T04:20:53.466Z,85.68
2018-11-11T04:21:56.494Z,85.85
2018-11-11T04:22:59.260Z,85.94
2018-11-11T04:24:01.977Z,85.90
2018-11-11T04:25:04.844Z,85.85
2018-11-11T04:26:07.552Z,85.82
2018-11-11T04:27:12.564Z,85.87
2018-11-11T04:28:15.401Z,85.39
2018-11-11T04:29:18.190Z,85.08
2018-11-11T04:30:21.475Z,85.48
2018-11-11T04:31:24.263Z,84.89
2018-11-11T04:32:27.946Z,85.94
2018-11-11T04:33:30.680Z,85.93
2018-11-11T04:34:33.699Z,85.59
2018-11-11T04:35:36.448Z,85.70
2018-11-11T04:36:39.173Z,85.53
2018-11-11T04:37:41.943Z,85.69
2018-11-11T04:38:44.684Z,85.66
2018-11-11T04:39:47.441Z,86.14
2018-11-11T04:40:55.480Z,85.66
2018-11-11T04:41:58.233Z,85.03
2018-11-11T04:43:01.253Z,84.93
2018-11-11T04:44:03.999Z,84.82
2018-11-11T04:45:06.731Z,85.46
2018-11-11T04:46:09.535Z,85.04
2018-11-11T04:47:12.557Z,84.66
2018-11-11T04:48:15.295Z,84.97
2018-11-11T04:49:18.039Z,85.11
2018-11-11T04:50:20.780Z,85.68
2018-11-11T04:51:23.539Z,85.04
2018-11-11T04:52:27.155Z,85.41
2018-11-11T04:53:32.676Z,85.01
2018-11-11T04:54:35.421Z,85.63
2018-11-11T04:55:38.152Z,85.20
2018-11-11T04:56:40.906Z,85.40
2018-11-11T04:57:44.472Z,84.85
2018-11-11T04:58:47.226Z,85.02
2018-11-11T04:59:50.262Z,85.04
2018-11-11T05:00:53.031Z,84.74
2018-11-11T05:01:55.782Z,85.27
2018-11-11T05:02:58.545Z,85.14
2018-11-11T05:04:02.890Z,85.26
2018-11-11T05:05:05.760Z,84.77
2018-11-11T05:06:08.993Z,84.99
2018-11-11T05:07:11.701Z,84.80
2018-11-11T05:08:14.405Z,84.71
2018-11-11T05:09:21.667Z,84.44
2018-11-11T05:10:24.442Z,84.41
2018-11-11T05:11:27.156Z,84.66
2018-11-11T05:12:30.213Z,84.49
2018-11-11T05:13:32.945Z,84.59
2018-11-11T05:14:35.675Z,84.40
2018-11-11T05:15:38.402Z,84.82
2018-11-11T05:16:42.693Z,84.79
2018-11-11T05:17:45.462Z,84.95
2018-11-11T05:18:48.477Z,84.92
2018-11-11T05:19:51.224Z,85.16
2018-11-11T05:20:53.953Z,84.70
2018-11-11T05:21:56.738Z,84.10
2018-11-11T05:22:59.454Z,84.35
2018-11-11T05:24:02.191Z,84.57
2018-11-11T05:25:05.220Z,84.68
2018-11-11T05:26:07.946Z,85.43
2018-11-11T05:27:10.670Z,83.98
2018-11-11T05:28:13.406Z,84.91
2018-11-11T05:29:16.143Z,84.62
2018-11-11T05:30:18.901Z,84.90
2018-11-11T05:31:21.918Z,84.89
2018-11-11T05:32:24.648Z,84.88
2018-11-11T05:33:27.408Z,84.39
2018-11-11T05:34:30.885Z,85.11
2018-11-11T05:35:33.870Z,84.70
2018-11-11T05:36:36.655Z,84.29
2018-11-11T05:37:40.660Z,84.91
2018-11-11T05:38:43.415Z,85.27
2018-11-11T05:39:47.993Z,84.89
2018-11-11T05:40:51.174Z,84.95
2018-11-11T05:41:53.925Z,85.44
2018-11-11T05:42:56.658Z,85.28
2018-11-11T05:43:59.685Z,84.94
2018-11-11T05:45:02.490Z,84.99
2018-11-11T05:46:05.229Z,85.38
2018-11-11T05:47:08.126Z,84.74
2018-11-11T05:48:11.324Z,84.70
2018-11-11T05:49:14.180Z,84.77
2018-11-11T05:50:17.920Z,84.76
2018-11-11T05:51:20.669Z,84.51
2018-11-11T05:52:23.450Z,84.81
2018-11-11T05:53:26.163Z,85.10
2018-11-11T05:54:28.897Z,84.41
2018-11-11T05:55:31.637Z,84.78
2018-11-11T05:56:36.319Z,84.48
2018-11-11T05:57:39.390Z,85.14
2018-11-11T05:58:42.158Z,84.89
2018-11-11T05:59:44.963Z,84.65
2018-11-11T06:00:47.714Z,84.96
2018-11-11T06:01:51.354Z,85.31
2018-11-11T06:02:55.046Z,84.73
2018-11-11T06:03:57.811Z,84.32
2018-11-11T06:05:00.561Z,84.89
2018-11-11T06:06:03.304Z,85.40
2018-11-11T06:07:06.452Z,85.02
2018-11-11T06:08:10.412Z,84.89
2018-11-11T06:09:13.438Z,85.18
2018-11-11T06:10:16.654Z,85.08
2018-11-11T06:11:19.392Z,84.99
2018-11-11T06:12:22.155Z,84.26
2018-11-11T06:13:25.474Z,84.67
2018-11-11T06:14:28.192Z,84.40
2018-11-11T06:15:31.242Z,84.83
2018-11-11T06:16:34.023Z,85.21
2018-11-11T06:17:37.334Z,85.22
2018-11-11T06:18:40.126Z,84.92
2018-11-11T06:19:43.226Z,84.69
2018-11-11T06:20:45.953Z,85.08
2018-11-11T06:21:49.022Z,84.85
2018-11-11T06:22:51.772Z,84.10
2018-11-11T06:23:55.026Z,84.63
2018-11-11T06:24:57.817Z,84.31
2018-11-11T06:26:00.679Z,84.03
2018-11-11T06:27:03.999Z,84.26
2018-11-11T06:28:07.482Z,84.48
2018-11-11T06:29:11.262Z,84.60
2018-11-11T06:30:17.297Z,84.40
2018-11-11T06:31:20.045Z,84.21
2018-11-11T06:46:06.281Z,82.36
2018-11-11T06:47:09.580Z,82.50
2018-11-11T06:48:12.530Z,82.96
2018-11-11T06:49:18.984Z,82.49
2018-11-11T06:50:21.992Z,82.52
2018-11-11T06:51:27.661Z,82.51
2018-11-11T06:52:30.375Z,82.41
2018-11-11T06:53:33.096Z,82.32
2018-11-11T06:54:42.270Z,82.50
2018-11-11T06:55:48.897Z,81.41
2018-11-11T06:56:51.692Z,81.31
2018-11-11T06:57:54.730Z,81.26
2018-11-11T06:58:57.521Z,81.61
2018-11-11T07:00:01.944Z,81.91
2018-11-11T07:01:05.474Z,81.12
2018-11-11T07:02:08.252Z,81.69
2018-11-11T07:03:10.970Z,81.71
2018-11-11T07:04:14.649Z,81.81
2018-11-11T07:05:17.401Z,81.17
2018-11-11T07:06:20.103Z,81.26
2018-11-11T07:07:24.052Z,80.65
2018-11-11T07:08:27.241Z,80.65
2018-11-11T07:09:29.973Z,81.27
2018-11-11T07:10:33.161Z,81.25
2018-11-11T07:11:35.909Z,81.19
2018-11-11T07:12:38.666Z,81.52
2018-11-11T07:13:41.439Z,81.47
2018-11-11T07:14:44.664Z,81.28
2018-11-11T07:15:47.429Z,81.35
2018-11-11T07:16:52.243Z,81.79
2018-11-11T07:17:55.025Z,81.41
2018-11-11T07:18:57.747Z,81.32
2018-11-11T07:20:00.485Z,81.33
2018-11-11T07:21:03.229Z,80.60
2018-11-11T07:22:06.003Z,81.36
2018-11-11T07:23:09.039Z,81.46
2018-11-11T07:24:13.276Z,81.68
2018-11-11T07:25:16.086Z,81.78
2018-11-11T07:26:18.848Z,80.69
2018-11-11T07:27:22.847Z,81.12
2018-11-11T07:28:26.495Z,80.85
2018-11-11T07:29:29.770Z,80.95
2018-11-11T07:30:33.952Z,80.76
2018-11-11T07:31:36.703Z,81.37
2018-11-11T07:32:39.413Z,80.99
2018-11-11T07:33:42.356Z,81.27
2018-11-11T07:34:46.519Z,80.09
2018-11-11T07:35:52.601Z,80.55
2018-11-11T07:36:55.892Z,80.44
2018-11-11T07:38:03.259Z,81.04
2018-11-11T07:40:23.740Z,80.73
2018-11-11T07:41:30.440Z,80.68
2018-11-11T07:42:33.551Z,79.98
2018-11-11T07:43:39.709Z,80.20
2018-11-11T07:44:44.687Z,80.57
2018-11-11T07:45:48.448Z,80.38
2018-11-11T07:46:51.179Z,79.97
2018-11-11T07:47:54.022Z,79.88
2018-11-11T07:48:57.145Z,80.24
2018-11-11T07:50:00.287Z,79.57
2018-11-11T07:51:03.471Z,80.01
2018-11-11T07:52:06.273Z,80.46
2018-11-11T07:53:09.805Z,79.64
2018-11-11T07:54:12.697Z,80.12
2018-11-11T07:55:16.212Z,80.23
2018-11-11T07:56:19.716Z,80.39
2018-11-11T07:57:22.526Z,79.86
2018-11-11T07:58:26.204Z,79.62
2018-11-11T07:59:28.950Z,79.65
2018-11-11T08:00:31.680Z,79.94
2018-11-11T08:01:35.594Z,80.30
2018-11-11T08:02:38.314Z,80.15
2018-11-11T08:03:41.241Z,79.78
2018-11-11T08:04:43.975Z,79.39
2018-11-11T08:05:47.030Z,79.71
2018-11-11T08:06:49.773Z,79.56
2018-11-11T08:07:52.839Z,80.17
2018-11-11T08:08:55.584Z,79.73
2018-11-11T08:09:58.309Z,79.40
2018-11-11T08:11:01.081Z,80.06
2018-11-11T08:12:05.072Z,79.34
2018-11-11T08:13:09.596Z,79.59
2018-11-11T08:14:12.633Z,79.17
2018-11-11T08:15:16.080Z,79.01
2018-11-11T08:16:19.779Z,79.65
2018-11-11T08:17:22.758Z,79.90
2018-11-11T08:18:26.551Z,79.25
2018-11-11T08:19:29.501Z,79.02
2018-11-11T08:20:36.779Z,79.65
2018-11-11T08:21:40.732Z,79.78
2018-11-11T08:22:45.937Z,79.96
2018-11-11T08:23:49.659Z,79.48
2018-11-11T08:24:52.393Z,79.99
2018-11-11T08:25:55.207Z,79.42
2018-11-11T08:26:58.712Z,79.50
2018-11-11T08:28:02.394Z,79.97
2018-11-11T08:29:05.665Z,78.97
2018-11-11T08:30:08.610Z,79.40
2018-11-11T08:31:12.609Z,80.01
2018-11-11T08:32:15.974Z,79.05
2018-11-11T08:33:19.510Z,79.98
2018-11-11T08:34:26.440Z,79.63
2018-11-11T08:35:29.940Z,78.83
2018-11-11T08:36:32.905Z,79.30
2018-11-11T08:37:35.710Z,79.21
2018-11-11T08:38:38.456Z,78.63
2018-11-11T08:39:41.679Z,79.19
2018-11-11T08:40:44.768Z,78.51
2018-11-11T08:41:47.819Z,79.03
2018-11-11T08:42:50.572Z,79.04
2018-11-11T08:43:55.440Z,78.34
2018-11-11T08:44:59.333Z,78.45
2018-11-11T08:46:04.145Z,77.94
2018-11-11T08:47:07.275Z,77.98
2018-11-11T08:48:10.792Z,78.74
2018-11-11T08:49:14.663Z,78.32
2018-11-11T08:50:18.603Z,78.68
2018-11-11T08:51:22.202Z,78.69
2018-11-11T08:52:26.638Z,78.59
2018-11-11T08:53:31.693Z,78.53
2018-11-11T08:54:35.718Z,78.70
2018-11-11T08:55:39.832Z,77.81
2018-11-11T08:56:42.681Z,78.12
2018-11-11T08:57:45.449Z,78.23
2018-11-11T08:58:48.565Z,78.19
2018-11-11T08:59:53.478Z,77.42
2018-11-11T09:00:58.950Z,77.85
2018-11-11T09:02:02.397Z,78.26
2018-11-11T09:03:06.199Z,77.78
2018-11-11T09:04:09.125Z,77.26
2018-11-11T09:05:15.726Z,78.18
2018-11-11T09:06:24.392Z,78.08
2018-11-11T09:07:28.230Z,77.36
2018-11-11T09:08:30.948Z,77.72
2018-11-11T09:09:34.445Z,77.62
2018-11-11T09:10:37.173Z,77.05
2018-11-11T09:11:40.360Z,77.26
2018-11-11T09:12:43.249Z,76.66
2018-11-11T09:13:47.616Z,76.86
2018-11-11T09:14:51.628Z,76.87
2018-11-11T09:15:54.768Z,76.45
2018-11-11T09:16:58.067Z,76.93
2018-11-11T09:18:01.122Z,77.14
2018-11-11T09:19:04.855Z,76.62
2018-11-11T09:20:11.092Z,76.85
2018-11-11T09:21:14.752Z,77.15
2018-11-11T09:22:17.532Z,76.86
2018-11-11T09:23:20.431Z,77.20
2018-11-11T09:24:23.752Z,77.44
2018-11-11T09:25:27.998Z,77.15
2018-11-11T09:26:31.463Z,76.52
2018-11-11T09:27:34.622Z,76.35
2018-11-11T09:28:37.869Z,76.49
2018-11-11T09:29:43.996Z,76.62
2018-11-11T09:30:47.746Z,76.42
2018-11-11T09:31:50.936Z,75.58
2018-11-11T09:32:54.493Z,74.57
2018-11-11T09:33:57.238Z,74.45
2018-11-11T09:35:00.056Z,71.74
2018-11-11T09:36:03.144Z,70.86
2018-11-11T09:37:07.933Z,71.02
2018-11-11T09:38:11.304Z,70.44
2018-11-11T09:39:14.126Z,69.44
2018-11-11T09:40:17.860Z,69.43
2018-11-11T09:41:20.637Z,68.47
2018-11-11T09:42:24.939Z,67.42
2018-11-11T09:43:29.348Z,67.88
2018-11-11T09:44:34.631Z,67.34
2018-11-11T09:45:37.401Z,69.09
2018-11-11T09:46:47.331Z,69.94
2018-11-11T09:47:51.342Z,69.06
2018-11-11T09:48:54.470Z,68.63
2018-11-11T09:49:57.751Z,69.23
2018-11-11T09:51:00.525Z,70.27
2018-11-11T09:52:07.972Z,70.62
2018-11-11T09:53:12.022Z,70.86
2018-11-11T09:54:15.103Z,71.58
2018-11-11T09:55:18.262Z,71.58
2018-11-11T09:56:21.262Z,72.03
2018-11-11T09:57:24.644Z,71.81
2018-11-11T09:58:29.471Z,72.59
2018-11-11T09:59:33.139Z,72.04
2018-11-11T10:00:36.487Z,71.73
2018-11-11T10:01:39.438Z,71.58
2018-11-11T10:02:43.381Z,71.95
2018-11-11T10:03:53.515Z,71.55
2018-11-11T10:05:05.982Z,70.84
2018-11-11T10:10:29.942Z,71.07
2018-11-11T10:11:42.631Z,69.36
2018-11-11T10:12:50.609Z,69.37
2018-11-11T10:16:04.604Z,69.17
2018-11-11T10:18:14.427Z,69.71
2018-11-11T10:19:23.007Z,71.24
2018-11-11T10:20:39.216Z,70.99
2018-11-11T10:21:49.837Z,71.09
2018-11-11T10:23:00.016Z,72.00
2018-11-11T10:24:09.649Z,71.87
2018-11-11T10:25:19.666Z,71.31
2018-11-11T10:26:33.589Z,71.79
2018-11-11T10:28:51.124Z,72.18
2018-11-11T10:31:00.245Z,71.55
2018-11-11T10:32:13.847Z,71.32
2018-11-11T10:33:21.099Z,71.27
2018-11-11T10:34:29.316Z,71.68
2018-11-11T10:35:37.457Z,71.45
2018-11-11T10:37:47.781Z,71.38
2018-11-11T10:39:13.588Z,72.36
2018-11-11T10:40:34.041Z,72.25
2018-11-11T10:41:42.811Z,72.31
2018-11-11T10:42:50.516Z,72.48
2018-11-11T10:44:01.386Z,72.74
2018-11-11T10:45:07.604Z,72.67
2018-11-11T10:46:19.663Z,72.88
2018-11-11T10:47:29.920Z,72.72
2018-11-11T10:48:36.057Z,72.65
2018-11-11T10:49:47.607Z,72.86
2018-11-11T10:51:01.656Z,73.36
2018-11-11T10:52:05.280Z,73.01
2018-11-11T10:53:11.571Z,73.15
2018-11-11T10:54:15.353Z,73.49
2018-11-11T10:55:21.528Z,73.47
2018-11-11T10:56:25.456Z,74.00
2018-11-11T10:57:29.042Z,73.22
2018-11-11T10:58:32.228Z,73.10
2018-11-11T10:59:38.481Z,73.67
2018-11-11T11:00:46.331Z,73.44
2018-11-11T11:01:55.299Z,73.30
2018-11-11T11:03:01.573Z,74.10
2018-11-11T11:04:04.649Z,73.29
2018-11-11T11:05:12.243Z,73.81
2018-11-11T11:06:19.819Z,73.61
2018-11-11T11:07:22.578Z,74.16
2018-11-11T11:08:26.623Z,74.49
2018-11-11T11:09:31.380Z,74.16
2018-11-11T11:10:34.296Z,74.09
2018-11-11T11:11:38.787Z,74.29
2018-11-11T11:12:43.279Z,74.37
2018-11-11T11:13:46.520Z,74.25
2018-11-11T11:14:49.320Z,74.48
2018-11-11T11:15:53.868Z,74.46
2018-11-11T11:16:57.073Z,73.89
2018-11-11T11:18:05.312Z,74.35
2018-11-11T11:20:17.339Z,74.60
2018-11-11T11:21:20.771Z,74.77
2018-11-11T11:22:23.649Z,74.30
2018-11-11T11:23:27.982Z,74.24
2018-11-11T11:24:31.751Z,74.84
2018-11-11T11:25:35.102Z,75.00
2018-11-11T11:26:38.691Z,74.79
2018-11-11T11:27:42.498Z,75.03
2018-11-11T11:28:49.765Z,74.66
2018-11-11T11:29:53.565Z,74.62
2018-11-11T11:30:57.265Z,75.27
2018-11-11T11:32:02.057Z,74.92
2018-11-11T11:45:28.783Z,73.97
2018-11-11T11:46:32.378Z,74.65
2018-11-11T11:47:36.276Z,74.53
2018-11-11T11:48:42.298Z,74.66
2018-11-11T11:49:47.808Z,74.46
2018-11-11T11:50:52.133Z,73.83
2018-11-11T11:51:55.910Z,74.06
2018-11-11T11:52:59.019Z,74.35
2018-11-11T11:54:02.608Z,74.76
2018-11-11T11:55:06.974Z,74.31
2018-11-11T11:56:10.552Z,73.53
2018-11-11T11:57:13.784Z,73.78
2018-11-11T11:58:23.148Z,73.93
2018-11-11T11:59:27.275Z,73.18
2018-11-11T12:00:30.809Z,73.52
2018-11-11T12:01:35.688Z,74.29
2018-11-11T12:02:39.337Z,73.18
2018-11-11T12:03:42.169Z,73.40
2018-11-11T12:04:46.189Z,73.95
2018-11-11T12:05:49.984Z,73.71
2018-11-11T12:06:53.877Z,73.89
2018-11-11T12:08:00.130Z,73.77
2018-11-11T12:09:04.583Z,74.18
2018-11-11T12:10:08.394Z,73.80
2018-11-11T12:11:11.334Z,73.58
2018-11-11T12:12:15.636Z,73.87
2018-11-11T12:13:20.802Z,73.95
2018-11-11T12:14:24.826Z,73.99
2018-11-11T12:15:29.132Z,73.93
2018-11-11T12:16:35.860Z,74.12
2018-11-11T12:17:39.324Z,73.68
2018-11-11T12:18:42.869Z,74.26
2018-11-11T12:20:52.609Z,73.22
2018-11-11T12:21:56.126Z,72.89
2018-11-11T12:22:59.730Z,73.70
2018-11-11T12:24:04.618Z,73.27
2018-11-11T12:26:14.430Z,72.93
2018-11-11T12:27:18.646Z,73.02
2018-11-11T12:28:22.288Z,73.19
2018-11-11T12:29:26.014Z,73.05
2018-11-11T12:30:29.024Z,73.25
2018-11-11T12:31:33.167Z,73.92
2018-11-11T12:32:37.207Z,73.57
2018-11-11T12:33:40.706Z,73.00
2018-11-11T12:34:45.010Z,72.99
2018-11-11T12:35:48.589Z,73.68
2018-11-11T12:36:54.116Z,72.93
2018-11-11T12:38:01.307Z,73.47
2018-11-11T12:39:05.407Z,72.98
2018-11-11T12:40:08.642Z,73.89
2018-11-11T12:41:16.770Z,72.88
2018-11-11T12:42:24.802Z,73.46
2018-11-11T12:43:31.520Z,72.87
2018-11-11T12:44:35.372Z,73.44
2018-11-11T12:45:38.163Z,72.82
2018-11-11T12:46:43.813Z,72.58
2018-11-11T12:47:47.997Z,72.97
2018-11-11T12:48:50.938Z,73.37
2018-11-11T12:49:54.405Z,73.10
2018-11-11T12:50:57.837Z,72.60
2018-11-11T12:52:05.529Z,73.33
2018-11-11T12:53:11.660Z,72.73
2018-11-11T12:54:14.473Z,72.87
2018-11-11T12:55:22.711Z,73.14
2018-11-11T12:56:26.651Z,73.54
2018-11-11T12:57:31.265Z,73.66
2018-11-11T12:58:34.731Z,73.55
2018-11-11T12:59:37.995Z,73.31
2018-11-11T13:00:41.999Z,73.57
2018-11-11T13:01:46.369Z,73.64
2018-11-11T13:02:55.695Z,74.00
2018-11-11T13:03:59.060Z,73.80
2018-11-11T13:05:02.671Z,72.93
2018-11-11T13:06:06.287Z,73.24
2018-11-11T13:07:09.675Z,73.83
2018-11-11T13:08:14.109Z,73.28
2018-11-11T13:09:22.918Z,73.49
2018-11-11T13:10:26.109Z,73.10
2018-11-11T13:11:28.880Z,73.76
2018-11-11T13:12:33.064Z,73.55
2018-11-11T13:13:36.701Z,73.00
2018-11-11T13:14:41.489Z,74.06
2018-11-11T13:15:44.323Z,73.77
2018-11-11T13:16:47.222Z,73.76
2018-11-11T13:17:52.480Z,73.68
2018-11-11T13:18:55.839Z,74.16
2018-11-11T13:20:00.112Z,73.67
2018-11-11T13:21:06.928Z,73.89
2018-11-11T13:22:10.674Z,73.95
2018-11-11T13:23:15.393Z,73.35
2018-11-11T13:24:18.857Z,72.89
2018-11-11T13:25:23.704Z,73.43
2018-11-11T13:26:26.881Z,73.62
2018-11-11T13:27:30.072Z,73.86
2018-11-11T13:28:36.006Z,73.48
2018-11-11T13:29:41.257Z,73.56
2018-11-11T13:30:49.490Z,73.71
2018-11-11T13:31:52.808Z,72.58
2018-11-11T13:32:59.557Z,72.79
2018-11-11T13:35:15.189Z,73.75
2018-11-11T13:36:18.440Z,73.52
2018-11-11T13:37:22.603Z,73.80
2018-11-11T13:38:25.898Z,73.18
2018-11-11T13:39:30.304Z,72.97
2018-11-11T13:40:33.744Z,73.14
2018-11-11T13:41:39.885Z,73.12
2018-11-11T13:42:44.423Z,73.83
2018-11-11T13:43:50.072Z,74.26
2018-11-11T13:44:53.224Z,74.48
2018-11-11T13:45:57.083Z,74.36
2018-11-11T13:47:02.757Z,75.34
2018-11-11T13:48:08.660Z,75.50
2018-11-11T13:49:16.437Z,75.46
2018-11-11T13:50:25.822Z,75.42
2018-11-11T13:51:29.639Z,76.19
2018-11-11T13:52:33.143Z,76.65
2018-11-11T13:53:36.450Z,76.53
2018-11-11T13:54:43.440Z,76.10
2018-11-11T13:55:48.522Z,76.68
2018-11-11T13:56:51.964Z,76.60
2018-11-11T13:57:56.404Z,77.32
2018-11-11T13:59:01.241Z,77.66
2018-11-11T14:00:04.852Z,77.36
2018-11-11T14:01:12.657Z,77.96
2018-11-11T14:02:21.304Z,77.57
2018-11-11T14:03:26.533Z,78.12
2018-11-11T14:04:29.355Z,77.63
2018-11-11T14:05:32.725Z,78.36
2018-11-11T14:06:35.731Z,78.55
2018-11-11T14:07:39.718Z,78.83
2018-11-11T14:08:43.114Z,78.52
2018-11-11T14:09:46.498Z,78.16
2018-11-11T14:10:57.537Z,78.06
2018-11-11T14:12:01.909Z,78.43
2018-11-11T14:13:05.456Z,78.91
2018-11-11T14:14:11.954Z,79.12
2018-11-11T14:15:17.036Z,79.85
2018-11-11T14:16:21.992Z,80.32
2018-11-11T14:17:24.844Z,80.06
2018-11-11T14:18:27.977Z,80.05
2018-11-11T14:19:32.296Z,80.25
2018-11-11T14:20:36.784Z,79.85
2018-11-11T14:21:40.075Z,80.15
2018-11-11T14:22:46.506Z,81.21
2018-11-11T14:23:50.048Z,81.47
2018-11-11T14:24:56.161Z,80.94
2018-11-11T14:25:59.922Z,81.66